Time;durP1;ratioP1;P1;durP2;ratioP2;P2;SDS_P1;SDS_P2;PMS_P1;PMS_P2;Temp;Humidity;BMP_temperature;BMP_pressure;BME280_temperature;BME280_humidity;BME280_pressure;Samples;Min_cycle;Max_cycle;Signal;HPM_P1;HPM_P2
2022/03/31 00:00:23;;;;;;;9.77;7.78;;;;;;;6.67;74.93;96861.56;4134907;28;20264;-56
2022/03/31 00:02:25;;;;;;;8.60;7.60;;;;;;;6.60;74.93;96862.88;4132132;28;20229;-54
2022/03/31 00:04:27;;;;;;;8.18;7.15;;;;;;;6.61;74.84;96861.78;4133443;28;20843;-55
2022/03/31 00:06:29;;;;;;;6.55;5.95;;;;;;;6.55;74.39;96868.31;4133759;28;20210;-53
2022/03/31 00:08:30;;;;;;;11.00;7.53;;;;;;;6.49;74.29;96869.38;4133824;28;20209;-53
2022/03/31 00:10:34;;;;;;;7.90;7.05;;;;;;;6.47;74.30;96872.34;4119209;28;20635;-54
2022/03/31 00:12:36;;;;;;;6.38;5.78;;;;;;;6.47;74.31;96868.81;4134248;28;20264;-54
2022/03/31 00:14:38;;;;;;;6.65;5.97;;;;;;;6.44;74.08;96864.75;4133789;28;20982;-55
2022/03/31 00:16:40;;;;;;;6.20;5.60;;;;;;;6.42;74.30;96866.88;4134395;28;20244;-53
2022/03/31 00:18:41;;;;;;;7.32;6.72;;;;;;;6.40;74.41;96860.06;4132809;28;20205;-54
2022/03/31 00:20:43;;;;;;;8.00;7.30;;;;;;;6.38;74.56;96856.81;4132807;28;20243;-54
2022/03/31 00:22:45;;;;;;;6.38;5.78;;;;;;;6.39;74.67;96848.41;4132329;28;20272;-54
2022/03/31 00:24:46;;;;;;;7.47;6.72;;;;;;;6.37;74.72;96850.56;4116851;28;20878;-55
2022/03/31 00:26:48;;;;;;;8.18;7.07;;;;;;;6.33;74.90;96854.06;4118845;28;20260;-56
2022/03/31 00:28:50;;;;;;;7.53;6.82;;;;;;;6.29;74.45;96848.34;4131912;28;20648;-54
2022/03/31 00:30:52;;;;;;;7.60;6.85;;;;;;;6.29;74.73;96847.53;4134730;28;20205;-56
2022/03/31 00:32:54;;;;;;;6.65;6.15;;;;;;;6.31;74.81;96845.38;4134529;28;20233;-54
2022/03/31 00:34:59;;;;;;;7.78;7.07;;;;;;;6.31;74.54;96845.38;4130895;28;20210;-54
2022/03/31 00:37:01;;;;;;;8.38;6.03;;;;;;;6.30;74.21;96849.19;4132680;28;20226;-56
2022/03/31 00:41:26;;;;;;;7.10;6.47;;;;;;;6.21;73.76;96838.00;4131983;28;20205;-55
2022/03/31 00:43:28;;;;;;;5.82;5.32;;;;;;;6.19;73.65;96831.19;4132596;28;20619;-54
2022/03/31 00:45:34;;;;;;;7.35;6.45;;;;;;;6.16;74.08;96837.16;4132145;28;20209;-55
2022/03/31 00:47:36;;;;;;;6.68;6.07;;;;;;;6.10;74.06;96833.56;4131715;28;20202;-54
2022/03/31 00:49:38;;;;;;;6.68;5.70;;;;;;;6.08;74.08;96832.22;4133090;28;20256;-55
2022/03/31 00:51:40;;;;;;;6.85;6.15;;;;;;;6.02;74.27;96836.00;4118755;28;20234;-54
2022/03/31 00:53:42;;;;;;;8.10;7.38;;;;;;;5.99;73.84;96833.78;4131476;28;20210;-53
2022/03/31 00:55:47;;;;;;;6.63;6.10;;;;;;;5.94;73.75;96833.75;4132593;28;20708;-56
2022/03/31 00:57:55;;;;;;;6.97;6.28;;;;;;;5.88;73.81;96830.19;4118519;28;20210;-55
2022/03/31 00:59:57;;;;;;;6.97;6.38;;;;;;;5.82;73.95;96827.72;4129024;28;21025;-54
2022/03/31 01:01:59;;;;;;;8.23;7.63;;;;;;;5.76;73.92;96824.09;4115998;28;20647;-54
2022/03/31 01:04:01;;;;;;;6.47;5.78;;;;;;;5.78;74.01;96823.84;4117296;28;20663;-54
2022/03/31 01:06:02;;;;;;;6.78;6.07;;;;;;;5.74;73.82;96830.88;4100978;28;20294;-55
2022/03/31 01:08:04;;;;;;;6.53;6.03;;;;;;;5.73;74.08;96821.09;4118067;28;20245;-55
2022/03/31 01:10:08;;;;;;;6.05;5.55;;;;;;;5.70;74.18;96816.19;4135421;28;20556;-54
2022/03/31 01:12:10;;;;;;;6.85;6.20;;;;;;;5.65;73.89;96813.44;4133190;28;20262;-54
2022/03/31 01:14:12;;;;;;;6.25;5.70;;;;;;;5.66;73.95;96806.94;4134887;28;20209;-54
2022/03/31 01:16:14;;;;;;;6.45;5.80;;;;;;;5.65;73.91;96808.03;4136583;28;20209;-53
2022/03/31 01:18:15;;;;;;;7.10;5.90;;;;;;;5.65;73.67;96810.72;4102638;28;20279;-53
2022/03/31 01:20:21;;;;;;;5.70;5.13;;;;;;;5.65;73.82;96808.03;4131735;28;20830;-53
2022/03/31 01:22:25;;;;;;;6.35;5.82;;;;;;;5.61;73.73;96813.16;4129964;28;20264;-54
2022/03/31 01:24:26;;;;;;;7.57;6.80;;;;;;;5.60;73.67;96810.69;4117670;28;20266;-54
2022/03/31 01:26:28;;;;;;;7.85;7.10;;;;;;;5.58;73.69;96807.44;4118639;28;20217;-55
2022/03/31 01:28:30;;;;;;;7.38;6.68;;;;;;;5.57;73.70;96803.09;4115685;28;20199;-55
2022/03/31 01:30:32;;;;;;;6.90;6.30;;;;;;;5.55;73.66;96802.53;4133538;28;20221;-54
2022/03/31 01:32:33;;;;;;;6.82;6.20;;;;;;;5.54;73.57;96798.16;4136469;28;20266;-56
2022/03/31 01:34:35;;;;;;;6.97;5.70;;;;;;;5.52;73.42;96793.03;4119437;28;20672;-53
2022/03/31 01:36:37;;;;;;;9.52;6.18;;;;;;;5.52;73.46;96801.16;4136714;28;20219;-53
2022/03/31 01:38:39;;;;;;;6.18;5.68;;;;;;;5.51;73.60;96804.13;4121883;28;20221;-54
2022/03/31 01:40:41;;;;;;;6.53;5.88;;;;;;;5.49;73.41;96803.56;4137861;28;20253;-55
2022/03/31 01:42:44;;;;;;;6.13;5.60;;;;;;;5.49;73.66;96798.16;4139165;28;20225;-54
2022/03/31 01:44:49;;;;;;;7.07;6.43;;;;;;;5.45;73.56;96797.03;4138113;28;20265;-54
2022/03/31 01:46:51;;;;;;;9.35;7.68;;;;;;;5.41;73.65;96795.91;4136498;28;20216;-53
2022/03/31 01:48:53;;;;;;;5.85;5.35;;;;;;;5.36;73.60;96787.75;4136147;28;20574;-54
2022/03/31 01:50:55;;;;;;;7.75;7.03;;;;;;;5.28;73.82;96790.91;4119266;28;20256;-54
2022/03/31 01:52:57;;;;;;;6.32;5.82;;;;;;;5.26;74.14;96785.78;4136228;28;20231;-53
2022/03/31 01:54:58;;;;;;;5.90;5.32;;;;;;;5.23;74.23;96788.19;4136472;28;20287;-55
2022/03/31 01:57:01;;;;;;;6.15;5.55;;;;;;;5.22;74.22;96781.13;4120325;28;20223;-55
2022/03/31 01:59:03;;;;;;;7.03;6.38;;;;;;;5.20;74.27;96780.56;4137132;28;20311;-53
2022/03/31 02:01:04;;;;;;;6.78;6.20;;;;;;;5.21;74.37;96780.31;4117172;28;20202;-56
2022/03/31 02:03:06;;;;;;;6.07;5.50;;;;;;;5.20;74.48;96780.56;4118371;28;20234;-54
2022/03/31 02:05:09;;;;;;;8.13;7.45;;;;;;;5.25;74.17;96780.59;4134043;28;20213;-54
2022/03/31 02:07:11;;;;;;;7.05;6.45;;;;;;;5.28;74.07;96786.31;4135371;28;20205;-56
2022/03/31 02:09:13;;;;;;;7.22;6.53;;;;;;;5.30;74.48;96778.72;4136468;28;20205;-54
2022/03/31 02:11:15;;;;;;;13.25;5.32;;;;;;;5.32;74.41;96776.59;4134205;28;20237;-54
2022/03/31 02:13:17;;;;;;;7.70;7.00;;;;;;;5.33;74.40;96774.69;4134801;28;20209;-56
2022/03/31 02:15:21;;;;;;;8.80;8.07;;;;;;;5.35;74.61;96770.66;4119026;28;20687;-56
2022/03/31 02:17:23;;;;;;;7.57;6.85;;;;;;;5.37;74.29;96767.69;4120271;28;20211;-54
2022/03/31 02:19:25;;;;;;;9.65;8.00;;;;;;;5.38;74.35;96763.88;4120112;28;20262;-54
2022/03/31 02:21:27;;;;;;;6.78;6.07;;;;;;;5.41;74.54;96763.34;4136918;28;20217;-55
2022/03/31 02:23:28;;;;;;;7.00;6.40;;;;;;;5.42;74.38;96760.38;4136660;28;20241;-54
2022/03/31 02:25:30;;;;;;;6.88;6.13;;;;;;;5.44;74.17;96760.13;4121256;28;20905;-55
2022/03/31 02:27:32;;;;;;;6.18;5.65;;;;;;;5.48;74.61;96758.53;4136071;28;20205;-53
2022/03/31 02:29:34;;;;;;;6.30;5.70;;;;;;;5.49;74.38;96749.34;4101594;28;20206;-54
2022/03/31 02:31:36;;;;;;;7.15;6.63;;;;;;;5.49;74.37;96752.03;4142070;28;20225;-54
2022/03/31 02:33:38;;;;;;;7.07;5.85;;;;;;;5.52;74.47;96746.09;4136397;28;20671;-54
2022/03/31 02:35:40;;;;;;;7.47;6.28;;;;;;;5.51;74.43;96749.88;4122520;28;20201;-54
2022/03/31 02:37:41;;;;;;;7.07;6.43;;;;;;;5.51;74.51;96741.75;4135229;28;20213;-56
2022/03/31 02:39:43;;;;;;;7.80;5.65;;;;;;;5.49;74.60;96741.19;4134569;28;20329;-54
2022/03/31 02:41:45;;;;;;;6.90;6.20;;;;;;;5.45;74.71;96737.38;4136422;28;20228;-53
2022/03/31 02:43:47;;;;;;;9.00;8.13;;;;;;;5.44;75.11;96730.31;4118552;28;20673;-53
2022/03/31 02:45:49;;;;;;;7.78;7.13;;;;;;;5.45;74.79;96729.22;4101452;28;20208;-54
2022/03/31 02:47:50;;;;;;;7.65;6.95;;;;;;;5.42;74.91;96721.63;4133327;28;20202;-55
2022/03/31 02:49:52;;;;;;;8.60;5.53;;;;;;;5.42;74.94;96714.28;4134169;28;20226;-54
2022/03/31 02:51:54;;;;;;;7.13;6.57;;;;;;;5.41;75.01;96719.97;4117301;28;20653;-54
2022/03/31 02:56:16;;;;;;;7.15;6.47;;;;;;;5.40;74.91;96707.50;4135062;28;20381;-53
2022/03/31 02:58:18;;;;;;;8.20;7.35;;;;;;;5.40;74.69;96708.31;4132997;28;20247;-53
2022/03/31 03:00:20;;;;;;;9.52;7.45;;;;;;;5.51;74.78;96710.03;4131015;28;20281;-55
2022/03/31 03:02:21;;;;;;;8.85;8.15;;;;;;;5.44;74.66;96705.91;4103686;28;20593;-53
2022/03/31 03:04:24;;;;;;;8.52;7.82;;;;;;;5.39;75.18;96703.16;4135240;28;20301;-54
2022/03/31 03:06:26;;;;;;;9.70;8.88;;;;;;;5.44;75.58;96700.47;4132737;28;20202;-53
2022/03/31 03:08:27;;;;;;;9.65;8.85;;;;;;;5.40;76.20;96692.06;4118669;28;20268;-55
2022/03/31 03:10:30;;;;;;;10.43;8.15;;;;;;;5.23;77.29;96694.09;4117767;28;20206;-55
2022/03/31 03:12:32;;;;;;;8.68;7.90;;;;;;;5.30;77.36;96685.75;4135601;28;20291;-55
2022/03/31 03:14:34;;;;;;;10.73;8.43;;;;;;;5.34;77.38;96687.66;4135815;28;20193;-54
2022/03/31 03:16:36;;;;;;;12.20;8.70;;;;;;;5.31;77.50;96692.81;4114711;28;20249;-54
2022/03/31 03:18:38;;;;;;;10.05;9.15;;;;;;;5.33;77.27;96691.47;4133269;28;20220;-54
2022/03/31 03:20:40;;;;;;;7.80;7.07;;;;;;;5.40;76.96;96691.22;4117586;28;20230;-55
2022/03/31 03:22:48;;;;;;;10.95;9.18;;;;;;;5.44;76.51;96692.34;4137416;28;20623;-54
2022/03/31 03:24:49;;;;;;;9.45;8.55;;;;;;;5.50;76.40;96691.28;4121621;28;20210;-53
2022/03/31 03:26:51;;;;;;;8.32;7.50;;;;;;;5.50;76.30;96685.88;4117387;28;20234;-53
2022/03/31 03:28:53;;;;;;;8.75;8.05;;;;;;;5.52;75.80;96691.84;4136548;28;20213;-53
2022/03/31 03:30:54;;;;;;;9.95;9.00;;;;;;;5.51;75.83;96688.34;4107683;28;20202;-54
2022/03/31 03:32:56;;;;;;;8.38;7.60;;;;;;;5.54;75.68;96689.66;4133219;28;20260;-53
2022/03/31 03:34:58;;;;;;;9.30;8.52;;;;;;;5.53;76.04;96688.03;4132668;28;20214;-53
2022/03/31 03:36:59;;;;;;;8.75;7.85;;;;;;;5.51;75.54;96690.22;4133372;28;21826;-54
2022/03/31 03:39:01;;;;;;;8.32;7.60;;;;;;;5.49;75.94;96684.25;4131399;28;20217;-54
2022/03/31 03:41:03;;;;;;;10.45;9.20;;;;;;;5.49;75.89;96686.97;4115720;28;20230;-53
2022/03/31 03:43:05;;;;;;;9.73;8.88;;;;;;;5.46;76.11;96691.00;4133683;28;20333;-53
2022/03/31 03:45:09;;;;;;;13.90;8.70;;;;;;;5.47;75.59;96681.78;4133989;28;20208;-54
2022/03/31 03:47:10;;;;;;;11.20;8.98;;;;;;;5.34;76.50;96687.66;4118703;28;20682;-54
2022/03/31 03:49:12;;;;;;;11.93;9.15;;;;;;;5.36;76.50;96690.13;4126093;28;20198;-54
2022/03/31 03:51:14;;;;;;;8.43;7.68;;;;;;;5.27;76.65;96680.84;4135717;28;20252;-54
2022/03/31 03:53:16;;;;;;;8.27;7.03;;;;;;;5.24;76.97;96684.09;4131461;28;20260;-54
2022/03/31 03:55:18;;;;;;;9.63;7.72;;;;;;;5.27;76.66;96684.38;4117187;28;20245;-54
2022/03/31 03:57:20;;;;;;;9.38;8.45;;;;;;;5.28;77.00;96686.00;4134440;28;20850;-54
2022/03/31 03:59:21;;;;;;;8.95;8.02;;;;;;;5.33;76.66;96679.78;4133240;28;20630;-54
2022/03/31 04:01:23;;;;;;;8.60;7.80;;;;;;;5.32;76.85;96683.59;4117499;28;20233;-54
2022/03/31 04:03:26;;;;;;;9.25;8.45;;;;;;;5.22;78.04;96680.81;4117385;28;20638;-54
2022/03/31 04:05:27;;;;;;;10.95;8.65;;;;;;;5.30;76.93;96677.63;4119391;28;20221;-56
2022/03/31 04:07:29;;;;;;;13.27;9.07;;;;;;;5.30;77.05;96680.31;4132360;28;20210;-54
2022/03/31 04:09:31;;;;;;;9.02;8.15;;;;;;;5.33;77.16;96679.78;4132055;28;20216;-54
2022/03/31 04:11:32;;;;;;;7.97;7.28;;;;;;;5.36;77.16;96679.28;4117083;28;20241;-54
2022/03/31 04:13:34;;;;;;;10.63;9.55;;;;;;;5.31;77.56;96676.53;4116868;28;20210;-53
2022/03/31 04:15:36;;;;;;;8.00;7.18;;;;;;;5.40;77.55;96677.66;4119321;28;20257;-53
2022/03/31 04:17:38;;;;;;;8.98;7.75;;;;;;;5.42;77.11;96683.66;4134450;28;20289;-54
2022/03/31 04:19:39;;;;;;;8.40;7.78;;;;;;;5.49;76.79;96671.47;4133504;28;20210;-53
2022/03/31 04:21:41;;;;;;;11.10;10.00;;;;;;;5.53;76.64;96672.59;4128407;28;20261;-53
2022/03/31 04:23:43;;;;;;;8.93;7.80;;;;;;;5.54;76.87;96674.22;4119310;28;20218;-53
2022/03/31 04:25:44;;;;;;;9.32;8.50;;;;;;;5.60;76.36;96675.06;4117709;28;20769;-53
2022/03/31 04:27:46;;;;;;;9.23;8.15;;;;;;;5.62;76.10;96668.28;4116099;28;20256;-54
2022/03/31 04:29:48;;;;;;;9.35;8.45;;;;;;;5.67;76.22;96672.91;4135541;28;20640;-54
2022/03/31 04:31:49;;;;;;;8.88;8.07;;;;;;;5.68;76.12;96674.56;4137637;28;20264;-54
2022/03/31 04:33:51;;;;;;;10.32;8.88;;;;;;;5.70;75.97;96675.13;4132139;28;20308;-54
2022/03/31 04:35:53;;;;;;;8.02;7.25;;;;;;;5.70;75.93;96675.13;4116987;28;20687;-55
2022/03/31 04:37:55;;;;;;;11.63;10.57;;;;;;;5.75;76.28;96667.81;4128853;28;20221;-53
2022/03/31 04:39:56;;;;;;;9.15;8.30;;;;;;;5.68;75.91;96666.41;4131365;28;20217;-54
2022/03/31 04:41:58;;;;;;;8.13;7.38;;;;;;;5.69;75.98;96668.88;4129534;28;20287;-55
2022/03/31 04:44:00;;;;;;;7.35;6.75;;;;;;;5.46;77.10;96663.06;4130933;28;20205;-53
2022/03/31 04:46:02;;;;;;;9.73;8.80;;;;;;;5.39;77.79;96662.47;4121613;28;20210;-54
2022/03/31 04:48:04;;;;;;;9.82;8.85;;;;;;;5.43;77.55;96663.59;4133556;28;20216;-53
2022/03/31 04:50:06;;;;;;;11.52;10.43;;;;;;;5.34;77.76;96662.44;4134825;28;20617;-55
2022/03/31 04:52:08;;;;;;;10.68;9.68;;;;;;;5.27;78.19;96664.56;4128316;28;20264;-53
2022/03/31 04:54:10;;;;;;;9.23;8.43;;;;;;;5.34;78.11;96665.16;4133679;28;20259;-54
2022/03/31 04:56:13;;;;;;;7.68;6.88;;;;;;;5.38;77.97;96666.28;4131807;28;20245;-53
2022/03/31 04:58:15;;;;;;;9.95;9.05;;;;;;;5.38;77.58;96666.28;4117802;28;20210;-54
2022/03/31 05:00:17;;;;;;;10.93;9.90;;;;;;;5.42;77.29;96667.38;4117839;28;20233;-54
2022/03/31 05:02:19;;;;;;;8.70;7.95;;;;;;;5.47;77.42;96664.69;4115747;28;20230;-54
2022/03/31 05:04:21;;;;;;;8.77;7.32;;;;;;;5.43;77.39;96667.09;4131899;28;20209;-54
2022/03/31 05:06:23;;;;;;;10.75;8.75;;;;;;;5.35;77.65;96661.38;4101045;28;20599;-54
2022/03/31 05:08:24;;;;;;;12.02;8.05;;;;;;;5.33;77.66;96668.94;4101156;28;20221;-54
2022/03/31 05:10:26;;;;;;;9.82;9.02;;;;;;;5.37;77.54;96670.06;4119233;28;20583;-57
2022/03/31 05:12:28;;;;;;;10.57;9.68;;;;;;;5.29;77.56;96667.84;4116822;28;20707;-55
2022/03/31 05:14:30;;;;;;;11.20;9.95;;;;;;;5.31;77.75;96671.13;4135007;28;20206;-54
2022/03/31 05:16:31;;;;;;;9.10;8.30;;;;;;;5.37;77.27;96659.22;4134118;28;20226;-54
2022/03/31 05:18:33;;;;;;;8.77;7.88;;;;;;;5.40;77.19;96654.09;4118489;28;20577;-54
2022/03/31 05:20:35;;;;;;;9.80;6.72;;;;;;;5.35;77.15;96656.75;4114848;28;20293;-54
2022/03/31 05:22:38;;;;;;;8.10;7.40;;;;;;;5.41;77.21;96660.31;4130710;28;21159;-54
2022/03/31 05:24:40;;;;;;;10.43;9.43;;;;;;;5.46;76.92;96657.63;4134839;28;20209;-55
2022/03/31 05:26:42;;;;;;;10.77;9.63;;;;;;;5.49;76.91;96659.84;4136212;28;20202;-54
2022/03/31 05:28:44;;;;;;;10.57;9.27;;;;;;;5.44;77.05;96654.38;4106614;28;20349;-55
2022/03/31 05:30:46;;;;;;;8.75;7.95;;;;;;;5.45;77.33;96645.16;4118079;28;20657;-55
2022/03/31 05:32:48;;;;;;;10.90;9.05;;;;;;;5.43;76.99;96664.41;4122218;28;20317;-54
2022/03/31 05:34:51;;;;;;;11.90;10.77;;;;;;;5.41;77.16;96660.31;4137667;28;20336;-56
2022/03/31 05:36:52;;;;;;;10.05;9.18;;;;;;;5.45;77.05;96650.56;4135347;28;20287;-54
2022/03/31 05:38:56;;;;;;;12.43;8.32;;;;;;;5.43;76.74;96647.31;4134918;28;20720;-54
2022/03/31 05:41:01;;;;;;;9.88;8.95;;;;;;;5.44;76.77;96651.66;4136857;28;20257;-54
2022/03/31 05:43:06;;;;;;;8.23;7.45;;;;;;;5.38;77.50;96650.00;4135736;28;20321;-54
2022/03/31 05:45:13;;;;;;;8.32;7.53;;;;;;;5.45;77.12;96656.00;4124565;28;20229;-55
2022/03/31 05:47:15;;;;;;;11.57;10.25;;;;;;;5.61;76.66;96649.56;4136331;28;20255;-55
2022/03/31 05:49:20;;;;;;;10.82;9.88;;;;;;;5.51;76.54;96650.34;4104743;28;20234;-57
2022/03/31 05:51:21;;;;;;;11.85;9.70;;;;;;;5.50;77.02;96653.31;4137860;28;20227;-53
2022/03/31 05:53:26;;;;;;;9.45;7.32;;;;;;;5.57;76.92;96659.31;4124385;28;20214;-54
2022/03/31 05:55:28;;;;;;;8.32;7.63;;;;;;;5.63;76.63;96647.41;4135707;28;20213;-54
2022/03/31 05:57:30;;;;;;;8.40;7.78;;;;;;;5.67;75.92;96653.94;4134856;28;20304;-55
2022/03/31 05:59:31;;;;;;;10.55;9.45;;;;;;;5.69;75.89;96649.88;4102187;28;20272;-55
2022/03/31 06:01:33;;;;;;;7.38;6.78;;;;;;;5.75;76.19;96658.88;4134727;28;20226;-53
2022/03/31 06:03:35;;;;;;;9.85;8.75;;;;;;;5.79;75.95;96651.81;4138075;28;20214;-53
2022/03/31 06:05:37;;;;;;;8.73;7.88;;;;;;;5.82;75.78;96656.75;4134709;28;20206;-54
2022/03/31 06:07:39;;;;;;;10.23;9.25;;;;;;;5.88;75.82;96661.13;4119192;28;20211;-55
2022/03/31 06:09:41;;;;;;;12.20;8.57;;;;;;;5.98;75.35;96655.72;4135931;28;20201;-54
2022/03/31 06:11:44;;;;;;;10.52;9.55;;;;;;;5.86;75.15;96647.00;4136762;28;20221;-53
2022/03/31 06:13:49;;;;;;;14.07;7.10;;;;;;;5.96;75.33;96639.69;4133686;28;20300;-55
2022/03/31 06:15:50;;;;;;;9.25;8.38;;;;;;;6.01;75.20;96644.31;4136188;28;20236;-54
2022/03/31 06:17:52;;;;;;;10.27;9.00;;;;;;;6.03;75.31;96642.97;4136593;28;20216;-54
2022/03/31 06:19:54;;;;;;;9.55;8.55;;;;;;;6.06;75.22;96647.06;4137016;28;20206;-54
2022/03/31 06:21:56;;;;;;;9.05;8.20;;;;;;;6.04;74.98;96643.81;4139303;28;20283;-53
2022/03/31 06:23:58;;;;;;;8.05;7.40;;;;;;;5.96;74.71;96644.31;4136548;28;20241;-53
2022/03/31 06:25:59;;;;;;;8.70;8.00;;;;;;;5.97;75.05;96654.09;4139476;28;20265;-55
2022/03/31 06:28:01;;;;;;;8.85;8.10;;;;;;;6.02;74.03;96644.06;4137642;28;20627;-54
2022/03/31 06:30:04;;;;;;;9.68;7.15;;;;;;;5.99;74.04;96649.22;4137051;28;20327;-53
2022/03/31 06:32:06;;;;;;;9.60;8.80;;;;;;;5.87;73.93;96652.16;4122378;28;20226;-53
2022/03/31 06:34:09;;;;;;;6.78;6.25;;;;;;;5.90;73.99;96658.97;4121791;28;20210;-54
2022/03/31 06:36:12;;;;;;;8.30;7.55;;;;;;;5.90;74.39;96650.81;4136389;28;20211;-54
2022/03/31 06:38:17;;;;;;;6.93;6.38;;;;;;;6.06;73.93;96650.59;4137467;28;20646;-53
2022/03/31 06:40:18;;;;;;;9.18;8.00;;;;;;;5.92;73.77;96656.78;4137184;28;20209;-54
2022/03/31 06:42:21;;;;;;;7.60;6.78;;;;;;;5.79;74.35;96657.25;4121456;28;20280;-55
2022/03/31 06:44:28;;;;;;;8.10;7.43;;;;;;;5.78;74.24;96650.19;4122024;28;20211;-56
2022/03/31 06:46:30;;;;;;;8.30;7.43;;;;;;;5.79;74.42;96652.69;4134148;28;20268;-53
2022/03/31 06:48:32;;;;;;;7.40;6.80;;;;;;;5.73;74.17;96652.88;4103388;28;20238;-55
2022/03/31 06:50:34;;;;;;;8.85;8.05;;;;;;;5.69;74.76;96651.78;4136988;28;20916;-54
2022/03/31 06:52:37;;;;;;;10.40;9.40;;;;;;;5.78;74.56;96650.19;4137523;28;20713;-53
2022/03/31 06:54:38;;;;;;;10.10;8.57;;;;;;;5.74;74.58;96649.91;4138454;28;20222;-55
2022/03/31 06:56:40;;;;;;;8.93;8.02;;;;;;;5.84;74.53;96651.88;4123372;28;20206;-54
2022/03/31 06:58:42;;;;;;;9.18;7.97;;;;;;;5.82;74.04;96657.56;4134589;28;20255;-55
2022/03/31 07:00:44;;;;;;;8.75;8.10;;;;;;;5.82;74.12;96651.34;4135159;28;20285;-54
2022/03/31 07:02:48;;;;;;;7.25;6.57;;;;;;;5.95;74.22;96661.69;4121606;28;20333;-53
2022/03/31 07:04:50;;;;;;;7.32;6.55;;;;;;;5.96;74.32;96657.91;4137550;28;20304;-54
2022/03/31 07:06:52;;;;;;;7.25;6.60;;;;;;;5.79;73.64;96651.81;4123743;28;20202;-54
2022/03/31 07:08:54;;;;;;;8.20;7.47;;;;;;;5.82;74.06;96659.47;4140635;28;20675;-54
2022/03/31 07:10:56;;;;;;;10.25;9.25;;;;;;;5.76;74.22;96664.00;4139024;28;20209;-53
2022/03/31 07:13:00;;;;;;;10.80;9.85;;;;;;;5.73;74.35;96661.00;4135145;28;20260;-53
2022/03/31 07:15:02;;;;;;;10.00;9.10;;;;;;;5.71;74.52;96661.31;4118970;28;20627;-57
2022/03/31 07:17:04;;;;;;;8.93;8.00;;;;;;;5.63;74.48;96663.69;4104014;28;20207;-54
2022/03/31 07:19:06;;;;;;;7.85;7.15;;;;;;;5.41;74.87;96660.31;4137347;28;20675;-55
2022/03/31 07:21:09;;;;;;;11.73;9.23;;;;;;;5.51;75.09;96654.94;4123780;28;20659;-54
2022/03/31 07:23:10;;;;;;;9.80;8.20;;;;;;;5.42;74.74;96651.91;4137863;28;20268;-54
2022/03/31 07:25:14;;;;;;;7.97;7.30;;;;;;;5.33;74.69;96648.09;4137539;28;20668;-55
2022/03/31 07:27:15;;;;;;;8.40;7.10;;;;;;;5.32;75.56;96649.16;4120678;28;20765;-55
2022/03/31 07:29:17;;;;;;;8.45;7.65;;;;;;;5.43;75.00;96652.75;4135184;28;21179;-54
2022/03/31 07:31:19;;;;;;;9.73;8.32;;;;;;;5.41;75.06;96646.75;4138193;28;20730;-55
2022/03/31 07:33:21;;;;;;;11.90;10.68;;;;;;;5.48;75.12;96650.88;4132735;28;20688;-55
2022/03/31 07:35:26;;;;;;;7.93;7.32;;;;;;;5.30;74.63;96651.31;4112086;28;20210;-54
2022/03/31 07:37:28;;;;;;;8.35;7.65;;;;;;;5.29;74.94;96649.69;4133968;28;20214;-54
2022/03/31 07:39:29;;;;;;;9.40;8.43;;;;;;;5.34;75.07;96643.47;4118094;28;20234;-54
2022/03/31 07:41:31;;;;;;;9.38;8.57;;;;;;;5.34;74.60;96648.88;4135592;28;20213;-54
2022/03/31 07:43:33;;;;;;;12.63;8.10;;;;;;;5.30;75.29;96653.22;4137333;28;20586;-55
2022/03/31 07:45:35;;;;;;;9.82;8.82;;;;;;;5.45;74.88;96658.72;4136619;28;20569;-54
2022/03/31 07:47:39;;;;;;;9.43;8.02;;;;;;;5.51;74.00;96654.94;4117963;28;20278;-54
2022/03/31 07:49:40;;;;;;;8.35;7.53;;;;;;;5.48;74.33;96655.47;4135101;28;20275;-53
2022/03/31 07:51:42;;;;;;;8.57;7.72;;;;;;;5.52;74.14;96662.00;4121690;28;20296;-53
2022/03/31 07:53:44;;;;;;;8.93;7.85;;;;;;;5.58;73.64;96660.94;4133099;28;20210;-56
2022/03/31 07:55:46;;;;;;;8.63;7.78;;;;;;;5.56;73.85;96663.91;4136437;28;20307;-54
2022/03/31 07:57:49;;;;;;;9.90;8.90;;;;;;;5.66;74.07;96663.16;4136340;28;20910;-53
2022/03/31 07:59:51;;;;;;;7.85;7.05;;;;;;;5.75;73.46;96656.16;4137262;28;20213;-54
2022/03/31 08:01:53;;;;;;;11.23;6.82;;;;;;;5.69;74.33;96662.66;4134035;28;20253;-54
2022/03/31 08:03:55;;;;;;;8.60;7.90;;;;;;;5.64;74.97;96649.06;4137470;28;20685;-53
2022/03/31 08:05:57;;;;;;;8.52;7.82;;;;;;;5.70;74.39;96650.72;4140656;28;20224;-54
2022/03/31 08:07:59;;;;;;;7.53;6.78;;;;;;;5.77;74.29;96648.56;4134641;28;20215;-54
2022/03/31 08:10:00;;;;;;;10.23;7.78;;;;;;;5.71;74.47;96646.91;4114708;28;20203;-54
2022/03/31 08:12:02;;;;;;;8.82;7.68;;;;;;;5.61;74.93;96644.13;4134549;28;20226;-55
2022/03/31 08:14:04;;;;;;;9.65;7.45;;;;;;;5.58;75.11;96650.09;4115468;28;20294;-55
2022/03/31 08:16:08;;;;;;;11.52;7.22;;;;;;;5.63;73.67;96652.84;4117510;28;20237;-55
2022/03/31 08:18:10;;;;;;;8.23;7.53;;;;;;;5.68;74.71;96652.84;4133732;28;20213;-56
2022/03/31 08:20:13;;;;;;;8.15;7.35;;;;;;;5.89;74.78;96649.19;4119076;28;20218;-55
2022/03/31 08:22:17;;;;;;;6.75;6.10;;;;;;;5.85;74.21;96650.78;4135760;28;20296;-52
2022/03/31 08:24:19;;;;;;;9.50;7.28;;;;;;;6.08;73.94;96647.63;4138134;28;20758;-55
2022/03/31 08:26:20;;;;;;;7.97;7.18;;;;;;;6.17;73.95;96652.22;4133121;28;20206;-56
2022/03/31 08:28:25;;;;;;;6.45;5.82;;;;;;;6.34;73.05;96655.53;4121230;28;21205;-55
2022/03/31 08:30:28;;;;;;;8.10;7.45;;;;;;;6.20;73.27;96653.59;4139001;28;20221;-56
2022/03/31 08:32:34;;;;;;;8.30;7.53;;;;;;;6.31;72.71;96660.69;4134037;28;20225;-55
2022/03/31 08:34:36;;;;;;;10.25;8.07;;;;;;;6.09;72.17;96651.97;4118150;28;20663;-56
2022/03/31 08:36:38;;;;;;;10.20;6.63;;;;;;;6.13;72.89;96653.03;4134623;28;20218;-54
2022/03/31 08:38:40;;;;;;;8.35;7.75;;;;;;;6.11;72.65;96655.22;4120668;28;20237;-55
2022/03/31 08:40:43;;;;;;;7.32;6.72;;;;;;;6.23;73.16;96655.81;4134834;28;20273;-54
2022/03/31 08:42:44;;;;;;;8.13;6.90;;;;;;;6.35;72.50;96661.81;4134357;28;20243;-53
2022/03/31 08:44:51;;;;;;;7.13;6.40;;;;;;;6.46;72.35;96660.72;4137289;28;20260;-55
2022/03/31 08:46:52;;;;;;;9.45;8.63;;;;;;;6.22;72.68;96656.88;4122093;28;20206;-54
2022/03/31 08:48:55;;;;;;;8.48;7.72;;;;;;;6.38;72.40;96656.66;4120218;28;20230;-54
2022/03/31 08:50:57;;;;;;;6.18;5.68;;;;;;;6.55;72.24;96653.69;4133372;28;20210;-54
2022/03/31 08:52:58;;;;;;;7.40;6.63;;;;;;;6.58;72.06;96650.41;4137721;28;20221;-54
2022/03/31 08:55:00;;;;;;;6.97;6.35;;;;;;;6.45;70.66;96650.94;4118010;28;20225;-54
2022/03/31 08:57:02;;;;;;;8.60;6.80;;;;;;;6.47;71.03;96643.34;4120033;28;20206;-54
2022/03/31 08:59:24;;;;;;;8.02;7.22;;;;;;;6.32;71.59;96646.03;4134112;28;20209;-53
2022/03/31 09:01:28;;;;;;;8.43;7.50;;;;;;;6.29;71.42;96647.38;4135342;28;20223;-53
2022/03/31 09:03:33;;;;;;;6.50;5.97;;;;;;;6.14;71.68;96644.63;4131898;28;20213;-54
2022/03/31 09:05:41;;;;;;;8.23;7.10;;;;;;;6.11;72.55;96644.38;4133743;28;20321;-53
2022/03/31 09:08:00;;;;;;;7.88;7.38;;;;;;;6.17;72.46;96648.72;4136703;28;20980;-54
2022/03/31 09:10:02;;;;;;;6.28;5.57;;;;;;;6.30;72.34;96657.16;4137271;28;20205;-53
2022/03/31 09:12:04;;;;;;;6.68;6.07;;;;;;;6.35;71.59;96656.38;4119097;28;20228;-54
2022/03/31 09:14:28;;;;;;;5.60;5.05;;;;;;;6.31;71.82;96655.28;4122077;28;20651;-54
2022/03/31 09:16:35;;;;;;;7.32;6.70;;;;;;;6.26;71.55;96663.41;4118744;28;20349;-53
2022/03/31 09:18:39;;;;;;;7.85;7.15;;;;;;;6.01;71.55;96660.59;4133877;28;20291;-52
2022/03/31 09:20:40;;;;;;;7.63;6.95;;;;;;;6.13;71.98;96653.03;4134262;28;20228;-53
2022/03/31 09:22:48;;;;;;;5.68;5.15;;;;;;;6.12;71.88;96651.41;4135362;28;20234;-52
2022/03/31 09:25:00;;;;;;;8.85;8.15;;;;;;;6.26;72.39;96656.06;4135886;28;20201;-52
2022/03/31 09:27:03;;;;;;;6.70;6.13;;;;;;;6.16;71.59;96652.53;4136755;28;20213;-56
2022/03/31 09:29:11;;;;;;;6.78;6.18;;;;;;;6.09;71.89;96647.34;4117772;28;20212;-56
2022/03/31 09:31:13;;;;;;;7.05;6.43;;;;;;;6.30;71.52;96653.66;4135840;28;20654;-55
2022/03/31 09:33:33;;;;;;;9.30;7.07;;;;;;;6.33;71.67;96653.91;4135462;28;20210;-54
2022/03/31 09:35:35;;;;;;;6.97;6.35;;;;;;;6.44;71.25;96649.31;4138013;28;20228;-54
2022/03/31 09:37:37;;;;;;;13.57;7.53;;;;;;;6.30;71.13;96653.66;4133249;28;20245;-55
2022/03/31 09:39:39;;;;;;;8.70;8.00;;;;;;;6.35;72.31;96654.47;4132767;28;20209;-54
2022/03/31 09:41:42;;;;;;;9.70;8.68;;;;;;;6.45;71.20;96651.78;4132713;28;20612;-54
2022/03/31 09:43:45;;;;;;;6.70;6.07;;;;;;;6.25;72.11;96656.34;4132015;28;20567;-56
2022/03/31 09:45:48;;;;;;;9.93;7.07;;;;;;;6.49;72.26;96652.03;4134606;28;20312;-54